sensor_id;sensor_type;location;lat;lon;timestamp;P1;durP1;ratioP1;P2;durP2;ratioP2
45408;SDS011;31162;51.076;3.784;2023-12-07T00:01:19;119.43;;;24.92;;
45408;SDS011;31162;51.076;3.784;2023-12-07T00:03:44;158.68;;;26.55;;
45408;SDS011;31162;51.076;3.784;2023-12-07T00:06:10;69.90;;;19.73;;
45408;SDS011;31162;51.076;3.784;2023-12-07T00:08:36;71.93;;;20.17;;
45408;SDS011;31162;51.076;3.784;2023-12-07T00:11:01;109.93;;;22.60;;
45408;SDS011;31162;51.076;3.784;2023-12-07T00:13:27;119.93;;;23.33;;
45408;SDS011;31162;51.076;3.784;2023-12-07T00:15:53;97.70;;;22.38;;
45408;SDS011;31162;51.076;3.784;2023-12-07T00:18:18;107.05;;;22.58;;
45408;SDS011;31162;51.076;3.784;2023-12-07T00:20:44;87.07;;;20.73;;
45408;SDS011;31162;51.076;3.784;2023-12-07T00:23:10;112.07;;;21.63;;
45408;SDS011;31162;51.076;3.784;2023-12-07T00:25:36;96.40;;;22.20;;
45408;SDS011;31162;51.076;3.784;2023-12-07T00:28:02;135.45;;;22.95;;
45408;SDS011;31162;51.076;3.784;2023-12-07T00:30:28;120.13;;;24.25;;
45408;SDS011;31162;51.076;3.784;2023-12-07T00:32:54;122.32;;;23.73;;
45408;SDS011;31162;51.076;3.784;2023-12-07T00:35:20;108.10;;;23.67;;
45408;SDS011;31162;51.076;3.784;2023-12-07T00:37:47;117.70;;;23.58;;
45408;SDS011;31162;51.076;3.784;2023-12-07T00:40:13;94.85;;;22.20;;
45408;SDS011;31162;51.076;3.784;2023-12-07T00:42:39;97.47;;;21.95;;
45408;SDS011;31162;51.076;3.784;2023-12-07T00:45:05;83.85;;;21.45;;
45408;SDS011;31162;51.076;3.784;2023-12-07T00:47:31;105.20;;;22.77;;
45408;SDS011;31162;51.076;3.784;2023-12-07T00:49:57;151.18;;;24.52;;
45408;SDS011;31162;51.076;3.784;2023-12-07T00:52:22;132.90;;;24.13;;
45408;SDS011;31162;51.076;3.784;2023-12-07T00:54:48;103.82;;;22.58;;
45408;SDS011;31162;51.076;3.784;2023-12-07T00:57:13;139.10;;;24.92;;
45408;SDS011;31162;51.076;3.784;2023-12-07T00:59:39;91.30;;;20.65;;
45408;SDS011;31162;51.076;3.784;2023-12-07T01:02:05;70.93;;;20.38;;
45408;SDS011;31162;51.076;3.784;2023-12-07T01:04:31;56.75;;;18.75;;
45408;SDS011;31162;51.076;3.784;2023-12-07T01:06:57;77.13;;;20.52;;
45408;SDS011;31162;51.076;3.784;2023-12-07T01:09:23;75.75;;;20.45;;
45408;SDS011;31162;51.076;3.784;2023-12-07T01:11:49;53.00;;;17.30;;
45408;SDS011;31162;51.076;3.784;2023-12-07T01:14:15;73.35;;;20.25;;
45408;SDS011;31162;51.076;3.784;2023-12-07T01:16:41;60.80;;;18.50;;
45408;SDS011;31162;51.076;3.784;2023-12-07T01:19:08;77.57;;;20.48;;
45408;SDS011;31162;51.076;3.784;2023-12-07T01:21:33;64.20;;;18.05;;
45408;SDS011;31162;51.076;3.784;2023-12-07T01:23:59;78.72;;;18.23;;
45408;SDS011;31162;51.076;3.784;2023-12-07T01:26:25;56.70;;;17.58;;
45408;SDS011;31162;51.076;3.784;2023-12-07T01:28:50;86.97;;;19.05;;
45408;SDS011;31162;51.076;3.784;2023-12-07T01:31:16;81.53;;;18.70;;
45408;SDS011;31162;51.076;3.784;2023-12-07T01:33:43;78.38;;;19.15;;
45408;SDS011;31162;51.076;3.784;2023-12-07T01:36:09;53.55;;;18.10;;
45408;SDS011;31162;51.076;3.784;2023-12-07T01:38:36;81.65;;;20.10;;
45408;SDS011;31162;51.076;3.784;2023-12-07T01:41:01;79.40;;;20.63;;
45408;SDS011;31162;51.076;3.784;2023-12-07T01:43:27;148.05;;;23.88;;
45408;SDS011;31162;51.076;3.784;2023-12-07T01:45:53;116.10;;;22.33;;
45408;SDS011;31162;51.076;3.784;2023-12-07T01:48:22;119.18;;;21.38;;
45408;SDS011;31162;51.076;3.784;2023-12-07T01:50:51;119.55;;;22.73;;
45408;SDS011;31162;51.076;3.784;2023-12-07T01:53:18;113.70;;;22.15;;
45408;SDS011;31162;51.076;3.784;2023-12-07T01:55:44;75.20;;;20.65;;
45408;SDS011;31162;51.076;3.784;2023-12-07T01:58:10;127.35;;;21.90;;
45408;SDS011;31162;51.076;3.784;2023-12-07T02:00:36;166.45;;;26.20;;
45408;SDS011;31162;51.076;3.784;2023-12-07T02:03:04;109.78;;;23.10;;
45408;SDS011;31162;51.076;3.784;2023-12-07T02:05:31;96.57;;;23.77;;
45408;SDS011;31162;51.076;3.784;2023-12-07T02:07:57;102.47;;;23.80;;
45408;SDS011;31162;51.076;3.784;2023-12-07T02:10:23;103.70;;;23.27;;
45408;SDS011;31162;51.076;3.784;2023-12-07T02:12:52;88.60;;;23.00;;
45408;SDS011;31162;51.076;3.784;2023-12-07T02:15:19;98.72;;;23.60;;
45408;SDS011;31162;51.076;3.784;2023-12-07T02:17:49;106.65;;;24.92;;
45408;SDS011;31162;51.076;3.784;2023-12-07T02:20:39;80.78;;;22.65;;
45408;SDS011;31162;51.076;3.784;2023-12-07T02:23:13;97.93;;;24.20;;
45408;SDS011;31162;51.076;3.784;2023-12-07T02:25:51;77.70;;;22.75;;
45408;SDS011;31162;51.076;3.784;2023-12-07T02:28:18;85.07;;;25.60;;
45408;SDS011;31162;51.076;3.784;2023-12-07T02:30:43;79.45;;;24.17;;
45408;SDS011;31162;51.076;3.784;2023-12-07T02:33:10;76.60;;;24.20;;
45408;SDS011;31162;51.076;3.784;2023-12-07T02:35:36;96.25;;;24.83;;
45408;SDS011;31162;51.076;3.784;2023-12-07T02:38:02;69.05;;;23.25;;
45408;SDS011;31162;51.076;3.784;2023-12-07T02:40:30;80.28;;;24.63;;
45408;SDS011;31162;51.076;3.784;2023-12-07T02:42:57;87.45;;;25.27;;
45408;SDS011;31162;51.076;3.784;2023-12-07T02:45:24;74.45;;;23.23;;
45408;SDS011;31162;51.076;3.784;2023-12-07T02:47:51;79.75;;;24.40;;
45408;SDS011;31162;51.076;3.784;2023-12-07T02:50:17;78.88;;;25.75;;
45408;SDS011;31162;51.076;3.784;2023-12-07T02:52:42;76.38;;;25.65;;
45408;SDS011;31162;51.076;3.784;2023-12-07T02:55:08;72.63;;;24.25;;
45408;SDS011;31162;51.076;3.784;2023-12-07T02:57:34;77.03;;;25.52;;
45408;SDS011;31162;51.076;3.784;2023-12-07T03:00:00;80.95;;;25.77;;
45408;SDS011;31162;51.076;3.784;2023-12-07T03:02:29;76.82;;;25.08;;
45408;SDS011;31162;51.076;3.784;2023-12-07T03:04:54;78.38;;;26.75;;
45408;SDS011;31162;51.076;3.784;2023-12-07T03:07:20;90.63;;;26.15;;
45408;SDS011;31162;51.076;3.784;2023-12-07T03:09:46;81.13;;;26.75;;
45408;SDS011;31162;51.076;3.784;2023-12-07T03:12:11;85.75;;;26.30;;
45408;SDS011;31162;51.076;3.784;2023-12-07T03:14:37;88.88;;;27.63;;
45408;SDS011;31162;51.076;3.784;2023-12-07T03:17:02;82.80;;;26.33;;
45408;SDS011;31162;51.076;3.784;2023-12-07T03:19:29;90.40;;;28.00;;
45408;SDS011;31162;51.076;3.784;2023-12-07T03:21:55;86.93;;;26.90;;
45408;SDS011;31162;51.076;3.784;2023-12-07T03:24:20;84.75;;;27.63;;
45408;SDS011;31162;51.076;3.784;2023-12-07T03:26:46;91.50;;;27.92;;
45408;SDS011;31162;51.076;3.784;2023-12-07T03:29:12;82.95;;;25.95;;
45408;SDS011;31162;51.076;3.784;2023-12-07T03:31:37;81.22;;;26.10;;
45408;SDS011;31162;51.076;3.784;2023-12-07T03:34:04;82.97;;;26.45;;
45408;SDS011;31162;51.076;3.784;2023-12-07T03:36:30;82.60;;;26.63;;
45408;SDS011;31162;51.076;3.784;2023-12-07T03:38:56;75.55;;;25.27;;
45408;SDS011;31162;51.076;3.784;2023-12-07T03:41:22;73.82;;;24.20;;
45408;SDS011;31162;51.076;3.784;2023-12-07T03:43:47;60.40;;;22.60;;
45408;SDS011;31162;51.076;3.784;2023-12-07T03:46:13;66.95;;;23.25;;
45408;SDS011;31162;51.076;3.784;2023-12-07T03:48:38;61.10;;;22.10;;
45408;SDS011;31162;51.076;3.784;2023-12-07T03:51:04;66.20;;;22.80;;
45408;SDS011;31162;51.076;3.784;2023-12-07T03:53:30;59.42;;;22.45;;
45408;SDS011;31162;51.076;3.784;2023-12-07T03:55:56;59.22;;;22.15;;
45408;SDS011;31162;51.076;3.784;2023-12-07T03:58:22;66.53;;;23.48;;
45408;SDS011;31162;51.076;3.784;2023-12-07T04:00:48;66.50;;;24.17;;
45408;SDS011;31162;51.076;3.784;2023-12-07T04:03:13;74.63;;;24.88;;
45408;SDS011;31162;51.076;3.784;2023-12-07T04:05:39;74.45;;;24.55;;
45408;SDS011;31162;51.076;3.784;2023-12-07T04:08:04;73.28;;;24.95;;
45408;SDS011;31162;51.076;3.784;2023-12-07T04:10:30;75.05;;;26.02;;
45408;SDS011;31162;51.076;3.784;2023-12-07T04:12:56;79.30;;;26.65;;
45408;SDS011;31162;51.076;3.784;2023-12-07T04:15:22;81.80;;;26.67;;
45408;SDS011;31162;51.076;3.784;2023-12-07T04:17:48;78.65;;;25.92;;
45408;SDS011;31162;51.076;3.784;2023-12-07T04:20:14;65.70;;;23.38;;
45408;SDS011;31162;51.076;3.784;2023-12-07T04:22:40;66.32;;;23.95;;
45408;SDS011;31162;51.076;3.784;2023-12-07T04:25:06;62.38;;;22.75;;
45408;SDS011;31162;51.076;3.784;2023-12-07T04:27:33;61.30;;;24.10;;
45408;SDS011;31162;51.076;3.784;2023-12-07T04:29:59;65.00;;;23.77;;
45408;SDS011;31162;51.076;3.784;2023-12-07T04:32:24;56.53;;;22.95;;
45408;SDS011;31162;51.076;3.784;2023-12-07T04:34:51;59.25;;;21.80;;
45408;SDS011;31162;51.076;3.784;2023-12-07T04:37:17;60.83;;;21.70;;
45408;SDS011;31162;51.076;3.784;2023-12-07T04:39:42;61.80;;;23.15;;
45408;SDS011;31162;51.076;3.784;2023-12-07T04:42:08;66.90;;;24.98;;
45408;SDS011;31162;51.076;3.784;2023-12-07T04:44:34;67.30;;;25.77;;
45408;SDS011;31162;51.076;3.784;2023-12-07T04:46:59;70.47;;;25.35;;
45408;SDS011;31162;51.076;3.784;2023-12-07T04:49:25;75.72;;;26.42;;
45408;SDS011;31162;51.076;3.784;2023-12-07T04:51:51;80.53;;;28.23;;
45408;SDS011;31162;51.076;3.784;2023-12-07T04:54:17;77.75;;;28.60;;
45408;SDS011;31162;51.076;3.784;2023-12-07T04:56:42;81.07;;;31.65;;
45408;SDS011;31162;51.076;3.784;2023-12-07T04:59:09;77.10;;;30.73;;
45408;SDS011;31162;51.076;3.784;2023-12-07T05:01:38;83.28;;;33.42;;
45408;SDS011;31162;51.076;3.784;2023-12-07T05:04:04;86.13;;;30.30;;
45408;SDS011;31162;51.076;3.784;2023-12-07T05:06:30;73.65;;;29.92;;
45408;SDS011;31162;51.076;3.784;2023-12-07T05:08:56;81.47;;;31.30;;
45408;SDS011;31162;51.076;3.784;2023-12-07T05:11:22;77.38;;;32.45;;
45408;SDS011;31162;51.076;3.784;2023-12-07T05:13:48;70.03;;;28.60;;
45408;SDS011;31162;51.076;3.784;2023-12-07T05:16:13;66.10;;;29.83;;
45408;SDS011;31162;51.076;3.784;2023-12-07T05:18:39;67.15;;;30.35;;
45408;SDS011;31162;51.076;3.784;2023-12-07T05:21:05;62.08;;;28.83;;
45408;SDS011;31162;51.076;3.784;2023-12-07T05:23:31;57.92;;;28.10;;
45408;SDS011;31162;51.076;3.784;2023-12-07T05:25:57;55.13;;;26.25;;
45408;SDS011;31162;51.076;3.784;2023-12-07T05:28:22;55.72;;;25.88;;
45408;SDS011;31162;51.076;3.784;2023-12-07T05:30:48;54.85;;;26.50;;
45408;SDS011;31162;51.076;3.784;2023-12-07T05:33:14;51.40;;;25.25;;
45408;SDS011;31162;51.076;3.784;2023-12-07T05:35:40;47.75;;;24.42;;
45408;SDS011;31162;51.076;3.784;2023-12-07T05:38:06;47.88;;;25.40;;
45408;SDS011;31162;51.076;3.784;2023-12-07T05:40:32;40.13;;;24.10;;
45408;SDS011;31162;51.076;3.784;2023-12-07T05:42:58;47.20;;;24.35;;
45408;SDS011;31162;51.076;3.784;2023-12-07T05:45:24;43.25;;;24.10;;
45408;SDS011;31162;51.076;3.784;2023-12-07T05:47:51;48.97;;;24.40;;
45408;SDS011;31162;51.076;3.784;2023-12-07T05:50:16;40.88;;;23.73;;
45408;SDS011;31162;51.076;3.784;2023-12-07T05:52:42;42.53;;;23.48;;
45408;SDS011;31162;51.076;3.784;2023-12-07T05:55:08;45.45;;;23.75;;
45408;SDS011;31162;51.076;3.784;2023-12-07T05:57:34;41.85;;;22.55;;
45408;SDS011;31162;51.076;3.784;2023-12-07T06:00:00;43.47;;;23.70;;
45408;SDS011;31162;51.076;3.784;2023-12-07T06:02:26;38.30;;;22.88;;
45408;SDS011;31162;51.076;3.784;2023-12-07T06:04:51;41.05;;;22.52;;
45408;SDS011;31162;51.076;3.784;2023-12-07T06:07:17;37.67;;;23.50;;
45408;SDS011;31162;51.076;3.784;2023-12-07T06:09:43;38.65;;;23.50;;
45408;SDS011;31162;51.076;3.784;2023-12-07T06:12:08;35.60;;;22.42;;
45408;SDS011;31162;51.076;3.784;2023-12-07T06:14:34;33.22;;;21.70;;
45408;SDS011;31162;51.076;3.784;2023-12-07T06:17:00;38.47;;;22.45;;
45408;SDS011;31162;51.076;3.784;2023-12-07T06:19:26;36.25;;;22.75;;
45408;SDS011;31162;51.076;3.784;2023-12-07T06:21:51;34.63;;;22.52;;
45408;SDS011;31162;51.076;3.784;2023-12-07T06:24:17;35.80;;;22.67;;
45408;SDS011;31162;51.076;3.784;2023-12-07T06:26:43;35.30;;;21.52;;
45408;SDS011;31162;51.076;3.784;2023-12-07T06:29:08;39.80;;;21.75;;
45408;SDS011;31162;51.076;3.784;2023-12-07T06:31:34;32.50;;;20.50;;
45408;SDS011;31162;51.076;3.784;2023-12-07T06:34:00;34.53;;;22.45;;
45408;SDS011;31162;51.076;3.784;2023-12-07T06:36:25;32.95;;;22.33;;
45408;SDS011;31162;51.076;3.784;2023-12-07T06:38:52;35.47;;;21.45;;
45408;SDS011;31162;51.076;3.784;2023-12-07T06:41:19;32.97;;;21.08;;
45408;SDS011;31162;51.076;3.784;2023-12-07T06:43:46;34.03;;;21.30;;
45408;SDS011;31162;51.076;3.784;2023-12-07T06:46:12;33.25;;;20.83;;
45408;SDS011;31162;51.076;3.784;2023-12-07T06:48:40;29.90;;;20.70;;
45408;SDS011;31162;51.076;3.784;2023-12-07T06:51:06;35.83;;;20.48;;
45408;SDS011;31162;51.076;3.784;2023-12-07T06:53:32;30.88;;;20.63;;
45408;SDS011;31162;51.076;3.784;2023-12-07T06:55:58;37.03;;;20.30;;
45408;SDS011;31162;51.076;3.784;2023-12-07T06:58:24;29.90;;;19.70;;
45408;SDS011;31162;51.076;3.784;2023-12-07T07:00:49;28.73;;;19.58;;
45408;SDS011;31162;51.076;3.784;2023-12-07T07:03:15;29.63;;;19.50;;
45408;SDS011;31162;51.076;3.784;2023-12-07T07:05:41;29.65;;;18.75;;
45408;SDS011;31162;51.076;3.784;2023-12-07T07:08:07;26.25;;;17.92;;
45408;SDS011;31162;51.076;3.784;2023-12-07T07:10:33;30.00;;;19.77;;
45408;SDS011;31162;51.076;3.784;2023-12-07T07:13:02;30.13;;;18.98;;
45408;SDS011;31162;51.076;3.784;2023-12-07T07:15:30;28.90;;;18.60;;
45408;SDS011;31162;51.076;3.784;2023-12-07T07:17:57;31.23;;;19.40;;
45408;SDS011;31162;51.076;3.784;2023-12-07T07:20:22;29.75;;;18.65;;
45408;SDS011;31162;51.076;3.784;2023-12-07T07:22:48;27.20;;;17.83;;
45408;SDS011;31162;51.076;3.784;2023-12-07T07:25:14;31.20;;;19.42;;
45408;SDS011;31162;51.076;3.784;2023-12-07T07:27:45;30.98;;;20.38;;
45408;SDS011;31162;51.076;3.784;2023-12-07T07:30:11;27.70;;;19.08;;
45408;SDS011;31162;51.076;3.784;2023-12-07T07:32:37;29.23;;;19.75;;
45408;SDS011;31162;51.076;3.784;2023-12-07T07:35:03;28.25;;;20.15;;
45408;SDS011;31162;51.076;3.784;2023-12-07T07:37:29;30.38;;;20.25;;
45408;SDS011;31162;51.076;3.784;2023-12-07T07:39:54;29.00;;;20.45;;
45408;SDS011;31162;51.076;3.784;2023-12-07T07:42:20;29.35;;;19.95;;
45408;SDS011;31162;51.076;3.784;2023-12-07T07:44:46;31.80;;;19.50;;
45408;SDS011;31162;51.076;3.784;2023-12-07T07:47:11;27.80;;;19.63;;
45408;SDS011;31162;51.076;3.784;2023-12-07T07:49:37;29.70;;;20.05;;
45408;SDS011;31162;51.076;3.784;2023-12-07T07:52:03;28.33;;;20.95;;
45408;SDS011;31162;51.076;3.784;2023-12-07T07:54:30;28.90;;;19.25;;
45408;SDS011;31162;51.076;3.784;2023-12-07T07:56:56;28.20;;;19.73;;
45408;SDS011;31162;51.076;3.784;2023-12-07T07:59:21;32.40;;;22.67;;
45408;SDS011;31162;51.076;3.784;2023-12-07T08:01:47;30.95;;;20.95;;
45408;SDS011;31162;51.076;3.784;2023-12-07T08:04:13;32.55;;;21.00;;
45408;SDS011;31162;51.076;3.784;2023-12-07T08:06:39;32.67;;;19.42;;
45408;SDS011;31162;51.076;3.784;2023-12-07T08:09:04;30.83;;;20.85;;
45408;SDS011;31162;51.076;3.784;2023-12-07T08:11:30;28.75;;;19.27;;
45408;SDS011;31162;51.076;3.784;2023-12-07T08:13:57;24.30;;;19.00;;
45408;SDS011;31162;51.076;3.784;2023-12-07T08:16:23;23.90;;;18.35;;
45408;SDS011;31162;51.076;3.784;2023-12-07T08:18:49;24.83;;;18.45;;
45408;SDS011;31162;51.076;3.784;2023-12-07T08:21:18;26.20;;;17.63;;
45408;SDS011;31162;51.076;3.784;2023-12-07T08:23:47;24.27;;;16.95;;
45408;SDS011;31162;51.076;3.784;2023-12-07T08:26:13;24.20;;;16.92;;
45408;SDS011;31162;51.076;3.784;2023-12-07T08:28:41;26.42;;;15.52;;
45408;SDS011;31162;51.076;3.784;2023-12-07T08:31:06;23.17;;;16.65;;
45408;SDS011;31162;51.076;3.784;2023-12-07T08:33:32;26.10;;;15.90;;
45408;SDS011;31162;51.076;3.784;2023-12-07T08:35:59;22.95;;;15.93;;
45408;SDS011;31162;51.076;3.784;2023-12-07T08:38:26;26.95;;;16.67;;
45408;SDS011;31162;51.076;3.784;2023-12-07T08:40:51;21.27;;;16.15;;
45408;SDS011;31162;51.076;3.784;2023-12-07T08:43:21;25.45;;;16.85;;
45408;SDS011;31162;51.076;3.784;2023-12-07T08:45:50;19.67;;;15.70;;
45408;SDS011;31162;51.076;3.784;2023-12-07T08:48:19;29.20;;;18.33;;
45408;SDS011;31162;51.076;3.784;2023-12-07T08:50:45;23.98;;;17.92;;
45408;SDS011;31162;51.076;3.784;2023-12-07T08:53:11;21.88;;;17.95;;
45408;SDS011;31162;51.076;3.784;2023-12-07T08:55:37;21.55;;;16.58;;
45408;SDS011;31162;51.076;3.784;2023-12-07T08:58:02;23.98;;;16.75;;
45408;SDS011;31162;51.076;3.784;2023-12-07T09:00:32;23.95;;;16.77;;
45408;SDS011;31162;51.076;3.784;2023-12-07T09:02:58;22.67;;;16.38;;
45408;SDS011;31162;51.076;3.784;2023-12-07T09:05:25;24.95;;;16.88;;
45408;SDS011;31162;51.076;3.784;2023-12-07T09:07:51;22.17;;;16.00;;
45408;SDS011;31162;51.076;3.784;2023-12-07T09:10:18;20.92;;;16.67;;
45408;SDS011;31162;51.076;3.784;2023-12-07T09:12:44;22.45;;;15.52;;
45408;SDS011;31162;51.076;3.784;2023-12-07T09:15:10;21.55;;;15.38;;
45408;SDS011;31162;51.076;3.784;2023-12-07T09:17:37;25.08;;;16.48;;
45408;SDS011;31162;51.076;3.784;2023-12-07T09:20:07;20.63;;;15.57;;
45408;SDS011;31162;51.076;3.784;2023-12-07T09:22:41;25.33;;;15.82;;
45408;SDS011;31162;51.076;3.784;2023-12-07T09:25:11;21.42;;;15.68;;
45408;SDS011;31162;51.076;3.784;2023-12-07T09:27:38;21.45;;;16.25;;
45408;SDS011;31162;51.076;3.784;2023-12-07T09:30:08;19.77;;;15.07;;
45408;SDS011;31162;51.076;3.784;2023-12-07T09:35:04;21.40;;;15.43;;
45408;SDS011;31162;51.076;3.784;2023-12-07T09:37:32;21.38;;;15.25;;
45408;SDS011;31162;51.076;3.784;2023-12-07T09:39:57;18.60;;;14.70;;
45408;SDS011;31162;51.076;3.784;2023-12-07T09:42:23;21.42;;;15.27;;
45408;SDS011;31162;51.076;3.784;2023-12-07T09:44:49;22.77;;;15.38;;
45408;SDS011;31162;51.076;3.784;2023-12-07T09:47:15;19.88;;;15.43;;
45408;SDS011;31162;51.076;3.784;2023-12-07T09:49:41;21.48;;;15.25;;
45408;SDS011;31162;51.076;3.784;2023-12-07T09:52:07;22.55;;;15.05;;
45408;SDS011;31162;51.076;3.784;2023-12-07T09:54:33;22.75;;;14.88;;
45408;SDS011;31162;51.076;3.784;2023-12-07T09:57:00;20.05;;;14.32;;
45408;SDS011;31162;51.076;3.784;2023-12-07T09:59:26;18.50;;;14.65;;
45408;SDS011;31162;51.076;3.784;2023-12-07T10:01:52;20.70;;;14.95;;
45408;SDS011;31162;51.076;3.784;2023-12-07T10:04:21;18.02;;;14.32;;
45408;SDS011;31162;51.076;3.784;2023-12-07T10:06:50;20.48;;;14.55;;
45408;SDS011;31162;51.076;3.784;2023-12-07T10:09:17;18.67;;;13.75;;
45408;SDS011;31162;51.076;3.784;2023-12-07T10:11:49;18.75;;;13.52;;
45408;SDS011;31162;51.076;3.784;2023-12-07T10:14:26;16.42;;;13.15;;
45408;SDS011;31162;51.076;3.784;2023-12-07T10:16:53;16.55;;;13.00;;
45408;SDS011;31162;51.076;3.784;2023-12-07T10:19:23;16.67;;;12.83;;
45408;SDS011;31162;51.076;3.784;2023-12-07T10:21:50;14.90;;;11.52;;
45408;SDS011;31162;51.076;3.784;2023-12-07T10:24:17;18.45;;;11.93;;
45408;SDS011;31162;51.076;3.784;2023-12-07T10:26:45;14.05;;;11.77;;
45408;SDS011;31162;51.076;3.784;2023-12-07T10:29:11;16.98;;;11.55;;
45408;SDS011;31162;51.076;3.784;2023-12-07T10:31:37;17.05;;;11.52;;
45408;SDS011;31162;51.076;3.784;2023-12-07T10:34:04;14.02;;;11.55;;
45408;SDS011;31162;51.076;3.784;2023-12-07T10:36:30;16.08;;;11.73;;
45408;SDS011;31162;51.076;3.784;2023-12-07T10:38:57;15.55;;;11.68;;
45408;SDS011;31162;51.076;3.784;2023-12-07T10:41:23;15.00;;;11.15;;
45408;SDS011;31162;51.076;3.784;2023-12-07T10:43:53;15.35;;;12.35;;
45408;SDS011;31162;51.076;3.784;2023-12-07T10:46:23;16.00;;;12.85;;
45408;SDS011;31162;51.076;3.784;2023-12-07T10:48:51;13.88;;;11.57;;
45408;SDS011;31162;51.076;3.784;2023-12-07T10:51:23;15.15;;;11.95;;
45408;SDS011;31162;51.076;3.784;2023-12-07T10:53:53;16.20;;;12.05;;
45408;SDS011;31162;51.076;3.784;2023-12-07T10:56:28;13.13;;;11.52;;
45408;SDS011;31162;51.076;3.784;2023-12-07T10:59:00;14.30;;;12.18;;
45408;SDS011;31162;51.076;3.784;2023-12-07T11:01:26;15.32;;;11.15;;
45408;SDS011;31162;51.076;3.784;2023-12-07T11:03:52;16.10;;;12.05;;
45408;SDS011;31162;51.076;3.784;2023-12-07T11:06:19;15.55;;;10.95;;
45408;SDS011;31162;51.076;3.784;2023-12-07T11:08:49;13.35;;;10.82;;
45408;SDS011;31162;51.076;3.784;2023-12-07T11:14:09;14.38;;;11.80;;
45408;SDS011;31162;51.076;3.784;2023-12-07T11:16:42;15.13;;;11.20;;
45408;SDS011;31162;51.076;3.784;2023-12-07T11:21:55;13.38;;;11.00;;
45408;SDS011;31162;51.076;3.784;2023-12-07T11:24:23;14.23;;;10.63;;
45408;SDS011;31162;51.076;3.784;2023-12-07T11:26:51;12.23;;;10.55;;
45408;SDS011;31162;51.076;3.784;2023-12-07T11:29:19;11.57;;;10.38;;
45408;SDS011;31162;51.076;3.784;2023-12-07T11:31:55;14.60;;;10.57;;
45408;SDS011;31162;51.076;3.784;2023-12-07T11:34:38;15.23;;;11.80;;
45408;SDS011;31162;51.076;3.784;2023-12-07T11:37:04;14.80;;;11.35;;
45408;SDS011;31162;51.076;3.784;2023-12-07T11:39:37;14.98;;;11.68;;
45408;SDS011;31162;51.076;3.784;2023-12-07T11:42:10;13.15;;;11.10;;
45408;SDS011;31162;51.076;3.784;2023-12-07T11:44:41;13.00;;;10.85;;
45408;SDS011;31162;51.076;3.784;2023-12-07T11:47:07;15.38;;;11.57;;
45408;SDS011;31162;51.076;3.784;2023-12-07T11:49:34;14.73;;;11.73;;
45408;SDS011;31162;51.076;3.784;2023-12-07T11:52:00;14.20;;;11.15;;
45408;SDS011;31162;51.076;3.784;2023-12-07T11:54:26;14.02;;;11.45;;
45408;SDS011;31162;51.076;3.784;2023-12-07T11:56:55;13.02;;;10.95;;
45408;SDS011;31162;51.076;3.784;2023-12-07T11:59:22;13.65;;;11.18;;
45408;SDS011;31162;51.076;3.784;2023-12-07T12:01:50;13.30;;;11.60;;
45408;SDS011;31162;51.076;3.784;2023-12-07T12:04:16;14.90;;;11.50;;
45408;SDS011;31162;51.076;3.784;2023-12-07T12:06:43;13.55;;;11.55;;
45408;SDS011;31162;51.076;3.784;2023-12-07T12:09:11;13.95;;;11.52;;
45408;SDS011;31162;51.076;3.784;2023-12-07T12:11:49;11.20;;;9.98;;
45408;SDS011;31162;51.076;3.784;2023-12-07T12:14:15;11.57;;;9.88;;
45408;SDS011;31162;51.076;3.784;2023-12-07T12:16:45;11.65;;;10.25;;
45408;SDS011;31162;51.076;3.784;2023-12-07T12:19:12;13.07;;;9.65;;
45408;SDS011;31162;51.076;3.784;2023-12-07T12:21:41;11.50;;;8.10;;
45408;SDS011;31162;51.076;3.784;2023-12-07T12:24:08;13.27;;;10.00;;
45408;SDS011;31162;51.076;3.784;2023-12-07T12:26:34;13.48;;;9.75;;
45408;SDS011;31162;51.076;3.784;2023-12-07T12:29:08;11.33;;;9.27;;
45408;SDS011;31162;51.076;3.784;2023-12-07T12:31:34;11.32;;;8.95;;
45408;SDS011;31162;51.076;3.784;2023-12-07T12:34:00;11.00;;;9.30;;
45408;SDS011;31162;51.076;3.784;2023-12-07T12:36:27;12.45;;;9.45;;
45408;SDS011;31162;51.076;3.784;2023-12-07T12:38:53;11.45;;;9.05;;
45408;SDS011;31162;51.076;3.784;2023-12-07T12:41:21;10.40;;;8.85;;
45408;SDS011;31162;51.076;3.784;2023-12-07T12:43:47;9.10;;;7.60;;
45408;SDS011;31162;51.076;3.784;2023-12-07T12:46:13;11.30;;;8.48;;
45408;SDS011;31162;51.076;3.784;2023-12-07T12:48:56;10.70;;;8.70;;
45408;SDS011;31162;51.076;3.784;2023-12-07T12:51:27;11.73;;;8.35;;
45408;SDS011;31162;51.076;3.784;2023-12-07T12:53:55;10.57;;;7.55;;
45408;SDS011;31162;51.076;3.784;2023-12-07T12:56:21;10.55;;;7.85;;
45408;SDS011;31162;51.076;3.784;2023-12-07T12:58:51;9.63;;;7.18;;
45408;SDS011;31162;51.076;3.784;2023-12-07T13:01:17;8.52;;;7.57;;
45408;SDS011;31162;51.076;3.784;2023-12-07T13:03:45;10.48;;;9.32;;
45408;SDS011;31162;51.076;3.784;2023-12-07T13:06:11;9.52;;;8.30;;
45408;SDS011;31162;51.076;3.784;2023-12-07T13:08:39;8.80;;;7.85;;
45408;SDS011;31162;51.076;3.784;2023-12-07T13:11:05;8.85;;;7.72;;
45408;SDS011;31162;51.076;3.784;2023-12-07T13:13:31;10.77;;;7.10;;
45408;SDS011;31162;51.076;3.784;2023-12-07T13:15:57;8.60;;;7.70;;
45408;SDS011;31162;51.076;3.784;2023-12-07T13:18:22;8.88;;;6.75;;
45408;SDS011;31162;51.076;3.784;2023-12-07T13:20:48;12.32;;;7.47;;
45408;SDS011;31162;51.076;3.784;2023-12-07T13:23:13;17.63;;;8.40;;
45408;SDS011;31162;51.076;3.784;2023-12-07T13:25:39;8.77;;;7.10;;
45408;SDS011;31162;51.076;3.784;2023-12-07T13:28:06;8.45;;;6.60;;
45408;SDS011;31162;51.076;3.784;2023-12-07T13:30:33;9.10;;;6.63;;
45408;SDS011;31162;51.076;3.784;2023-12-07T13:33:00;8.02;;;7.00;;
45408;SDS011;31162;51.076;3.784;2023-12-07T13:35:26;9.90;;;7.63;;
45408;SDS011;31162;51.076;3.784;2023-12-07T13:37:52;8.43;;;6.35;;
45408;SDS011;31162;51.076;3.784;2023-12-07T13:40:18;7.68;;;6.65;;
45408;SDS011;31162;51.076;3.784;2023-12-07T13:42:43;8.25;;;6.05;;
45408;SDS011;31162;51.076;3.784;2023-12-07T13:45:09;9.38;;;6.50;;
45408;SDS011;31162;51.076;3.784;2023-12-07T13:47:35;9.43;;;7.20;;
45408;SDS011;31162;51.076;3.784;2023-12-07T13:50:03;7.90;;;6.47;;
45408;SDS011;31162;51.076;3.784;2023-12-07T13:52:29;9.02;;;6.18;;
45408;SDS011;31162;51.076;3.784;2023-12-07T13:54:56;6.95;;;6.18;;
45408;SDS011;31162;51.076;3.784;2023-12-07T13:57:22;7.25;;;6.35;;
45408;SDS011;31162;51.076;3.784;2023-12-07T13:59:51;9.10;;;6.32;;
45408;SDS011;31162;51.076;3.784;2023-12-07T14:02:18;8.55;;;7.03;;
45408;SDS011;31162;51.076;3.784;2023-12-07T14:04:45;7.20;;;5.57;;
45408;SDS011;31162;51.076;3.784;2023-12-07T14:07:12;7.93;;;6.15;;
45408;SDS011;31162;51.076;3.784;2023-12-07T14:09:43;9.30;;;6.03;;
45408;SDS011;31162;51.076;3.784;2023-12-07T14:12:10;6.60;;;5.60;;
45408;SDS011;31162;51.076;3.784;2023-12-07T14:14:40;9.65;;;6.30;;
45408;SDS011;31162;51.076;3.784;2023-12-07T14:17:12;8.65;;;6.70;;
45408;SDS011;31162;51.076;3.784;2023-12-07T14:19:39;9.25;;;6.03;;
45408;SDS011;31162;51.076;3.784;2023-12-07T14:22:06;8.52;;;6.35;;
45408;SDS011;31162;51.076;3.784;2023-12-07T14:24:34;7.65;;;6.40;;
45408;SDS011;31162;51.076;3.784;2023-12-07T14:27:02;7.75;;;6.03;;
45408;SDS011;31162;51.076;3.784;2023-12-07T14:29:31;8.45;;;6.90;;